Share

Van, Turkey

Van (LTCI) Elev 5453 ft | 38.47 °N, 43.35 °E | Change Station

Current weather conditions updated 23 minutes ago

Mostly Cloudy
Mostly Cloudy
50 °F
Feels Like 50 °F
N
4
Wind Variable Wind from SSW
Sunrise 5:24 AM
Sunset 6:47 PM
Moon Waning Gibbous

Today is forecast to be Cooler than yesterday. Showers possible tonight.

Pressure 30.18 in
Visibility 6.2 miles
Clouds Scattered Clouds 3000 ft
Mostly Cloudy 8000 ft
Dew Point 43 °F
Humidity 76%
Rainfall 0.00 in
Snow Depth Not available.
UV 0 out of 16
Pollen Not available.
Air Quality Not available.
Flu Activity Not available.
METAR LTCI 200050Z 20003KT 130V240 9999 SCT030 BKN080 10/06 Q1022 NOSIG

More Conditions Fewer Conditions

Pressure 30.18 in
Visibility 6.2 miles
Clouds Scattered Clouds 3000 ft
Mostly Cloudy 8000 ft
Dew Point 43 °F
Humidity 76%
Rainfall 0.00 in
Snow Depth Not available.
UV 0 out of 16
Pollen Not available.
Air Quality Not available.
Flu Activity Not available.
METAR LTCI 200050Z 20003KT 130V240 9999 SCT030 BKN080 10/06 Q1022 NOSIG

More Conditions Fewer Conditions

10-Day Weather Forecast

Almanac

Astronomy

Apr. 20, 2014 Rise Set
Actual Time 5:24 AM EEST 6:47 PM EEST
Civil Twilight 4:56 AM EEST 7:15 PM EEST
Nautical Twilight 4:23 AM EEST 7:48 PM EEST
Astronomical Twilight 3:48 AM EEST 8:23 PM EEST
Moon 11:59 PM EEST 9:22 AM EEST
Length of Visible Light 14h 18m
Length of Day
13h 23m
Tomorrow will be 2m 18s longer.
Waning Gibbous, 75% of the Moon is Illuminated
Apr 19
Waning Gibbous
Apr 22
Last Quarter
Apr 29
New
May 6
First Quarter
May 14
Full

Yesterday's Extremes

Country Highs Country Lows

Community

  • White-Crowned Sparrow
    White-Crowned Sparrow
  • New Day
    New Day
  • Happy Easter!
    Happy Easter!
  • poppy bloom near Mazar-e-Sharif
    poppy bloom near Mazar-e-Sharif
  • Happy Easter WU friends!!!!
    Happy Easter WU friends!!!!

WunderPhotos

Upload Photos

1,703,007 photos uploaded!

WunderBlogs® & News

Nearby

Snow Depth

Not available.

Coastal Water Temperatures

Place Temperature
No Stations Reporting

Earthquake Activity

City Distance Mag. Time & Date
No recent earthquake activity has been reported nearby.
Minimum magnitude displayed is 2.5.

Nearby Weather Stations

There are no personal weather stations in this area.

What do you think?

We're not finished. Please let us know what you like, what you don't like, and what you are still missing.